createdAt,value
2022-08-21T00:00:36.249Z,79.36
2022-08-21T00:03:10.159Z,79.47
2022-08-21T00:05:48.701Z,79.49
2022-08-21T00:08:22.248Z,79.44
2022-08-21T00:10:53.931Z,79.44
2022-08-21T00:13:26.485Z,79.44
2022-08-21T00:15:58.317Z,79.50
2022-08-21T00:18:30.083Z,79.53
2022-08-21T00:21:01.914Z,79.67
2022-08-21T00:23:36.385Z,79.72
2022-08-21T00:26:08.375Z,79.80
2022-08-21T00:28:40.340Z,79.78
2022-08-21T00:31:12.264Z,79.79
2022-08-21T00:33:44.336Z,79.67
2022-08-21T00:36:16.358Z,79.60
2022-08-21T00:38:48.018Z,79.57
2022-08-21T00:41:37.164Z,79.52
2022-08-21T00:43:53.563Z,79.63
2022-08-21T00:46:28.320Z,79.74
2022-08-21T00:48:59.305Z,79.96
2022-08-21T00:51:51.002Z,80.18
2022-08-21T00:54:25.592Z,80.32
2022-08-21T00:57:01.348Z,80.43
2022-08-21T00:59:35.394Z,80.47
2022-08-21T01:02:08.889Z,80.49
2022-08-21T01:04:41.607Z,80.45
2022-08-21T01:07:14.563Z,80.37
2022-08-21T01:09:47.917Z,80.32
2022-08-21T01:12:20.199Z,80.11
2022-08-21T01:14:52.024Z,80.01
2022-08-21T01:17:23.975Z,79.95
2022-08-21T01:19:57.526Z,79.96
2022-08-21T01:22:29.463Z,80.07
2022-08-21T01:25:01.205Z,80.25
2022-08-21T01:27:33.092Z,80.46
2022-08-21T01:30:14.221Z,80.65
2022-08-21T01:32:46.530Z,80.75
2022-08-21T01:35:19.427Z,80.83
2022-08-21T01:37:51.332Z,80.87
2022-08-21T01:40:23.543Z,80.83
2022-08-21T01:42:55.487Z,80.73
2022-08-21T01:45:27.429Z,80.60
2022-08-21T01:47:59.307Z,80.49
2022-08-21T01:50:31.619Z,80.46
2022-08-21T01:53:03.601Z,80.48
2022-08-21T01:55:35.432Z,80.56
2022-08-21T01:58:07.241Z,80.70
2022-08-21T02:00:39.845Z,80.79
2022-08-21T02:03:11.719Z,80.86
2022-08-21T02:05:43.910Z,80.98
2022-08-21T02:08:15.608Z,81.04
2022-08-21T02:10:49.012Z,80.99
2022-08-21T02:13:21.284Z,80.93
2022-08-21T02:15:53.483Z,80.71
2022-08-21T02:18:25.569Z,80.39
2022-08-21T02:20:57.475Z,79.99
2022-08-21T02:23:29.381Z,79.56
2022-08-21T02:26:03.009Z,79.07
2022-08-21T02:28:35.943Z,78.42
2022-08-21T02:31:07.998Z,77.96
2022-08-21T02:33:40.667Z,77.47
2022-08-21T02:36:13.063Z,76.75
2022-08-21T02:38:45.432Z,76.29
2022-08-21T02:41:18.774Z,75.67
2022-08-21T02:43:51.069Z,75.12
2022-08-21T02:46:23.106Z,74.06
2022-08-21T02:48:54.848Z,72.74
2022-08-21T02:51:27.245Z,71.88
2022-08-21T02:53:59.005Z,70.88
2022-08-21T02:56:31.639Z,69.75
2022-08-21T02:59:03.614Z,68.91
2022-08-21T03:01:35.539Z,68.17
2022-08-21T03:04:07.366Z,67.06
2022-08-21T03:06:39.095Z,66.43
2022-08-21T03:09:11.344Z,65.64
2022-08-21T03:11:45.110Z,65.13
2022-08-21T03:14:16.920Z,64.32
2022-08-21T03:16:48.927Z,63.81
2022-08-21T03:19:21.401Z,63.33
2022-08-21T03:21:53.232Z,62.92
2022-08-21T03:24:25.513Z,62.48
2022-08-21T03:26:58.009Z,62.08
2022-08-21T03:29:30.032Z,61.91
2022-08-21T03:32:01.787Z,61.47
2022-08-21T03:34:33.681Z,61.29
2022-08-21T03:37:06.896Z,61.20
2022-08-21T03:39:38.948Z,60.94
2022-08-21T03:42:10.995Z,60.80
2022-08-21T03:44:43.053Z,60.34
2022-08-21T03:47:15.034Z,60.21
2022-08-21T03:49:46.840Z,59.83
2022-08-21T03:52:18.925Z,59.86
2022-08-21T03:54:51.496Z,59.34
2022-08-21T03:57:23.752Z,59.09
2022-08-21T03:59:56.099Z,58.95
2022-08-21T04:02:28.326Z,58.33
2022-08-21T04:05:00.135Z,58.08
2022-08-21T04:07:32.210Z,57.92
2022-08-21T04:10:07.991Z,57.28
2022-08-21T04:12:40.070Z,57.31
2022-08-21T04:15:12.510Z,56.70
2022-08-21T04:17:47.326Z,56.78
2022-08-21T04:20:20.034Z,56.38
2022-08-21T04:22:52.662Z,56.12
2022-08-21T04:25:26.574Z,56.43
2022-08-21T04:27:59.120Z,56.30
2022-08-21T04:30:31.160Z,56.14
2022-08-21T04:33:04.451Z,55.76
2022-08-21T04:35:36.721Z,55.78
2022-08-21T04:38:08.713Z,55.65
2022-08-21T04:40:40.676Z,55.45
2022-08-21T04:43:13.110Z,55.28
2022-08-21T04:45:48.766Z,55.07
2022-08-21T04:48:22.935Z,55.43
2022-08-21T04:51:00.196Z,55.14
2022-08-21T04:53:39.924Z,55.42
2022-08-21T04:56:33.344Z,54.90
2022-08-21T04:59:08.001Z,54.81
2022-08-21T05:01:40.028Z,54.46
2022-08-21T05:04:14.944Z,54.36
2022-08-21T05:06:48.467Z,54.34
2022-08-21T05:09:20.395Z,54.67
2022-08-21T05:11:53.950Z,55.46
2022-08-21T05:14:27.550Z,55.48
2022-08-21T05:16:59.986Z,55.14
2022-08-21T05:19:32.070Z,54.98
2022-08-21T05:22:04.722Z,54.99
2022-08-21T05:24:37.424Z,54.07
2022-08-21T05:27:09.277Z,54.40
2022-08-21T05:29:41.069Z,54.78
2022-08-21T05:32:14.321Z,55.01
2022-08-21T05:34:47.805Z,55.25
2022-08-21T05:37:19.769Z,55.44
2022-08-21T05:40:20.494Z,55.10
2022-08-21T05:42:25.622Z,54.46
2022-08-21T05:44:57.383Z,54.62
2022-08-21T05:47:29.657Z,55.19
2022-08-21T05:50:01.394Z,54.58
2022-08-21T05:52:34.170Z,54.62
2022-08-21T05:55:06.578Z,54.67
2022-08-21T05:57:41.119Z,54.62
2022-08-21T06:00:13.566Z,54.27
2022-08-21T06:02:45.323Z,54.12
2022-08-21T06:05:25.155Z,53.72
2022-08-21T06:07:51.501Z,52.95
2022-08-21T06:10:23.932Z,52.24
2022-08-21T06:12:56.694Z,52.37
2022-08-21T06:15:28.459Z,52.14
2022-08-21T06:18:00.436Z,52.08
2022-08-21T06:20:33.153Z,52.24
2022-08-21T06:23:05.126Z,52.20
2022-08-21T06:25:37.192Z,52.61
2022-08-21T06:28:10.541Z,52.83
2022-08-21T06:30:42.375Z,53.55
2022-08-21T06:33:14.270Z,53.83
2022-08-21T06:35:47.704Z,54.92
2022-08-21T06:38:20.706Z,56.31
2022-08-21T06:40:52.391Z,57.38
2022-08-21T06:43:24.256Z,58.25
2022-08-21T06:45:57.953Z,58.55
2022-08-21T06:48:31.717Z,59.31
2022-08-21T06:51:03.842Z,59.21
2022-08-21T06:53:35.655Z,59.68
2022-08-21T06:56:07.590Z,59.88
2022-08-21T06:58:39.546Z,59.35
2022-08-21T07:01:12.354Z,58.59
2022-08-21T07:03:45.023Z,56.67
2022-08-21T07:06:17.153Z,55.16
2022-08-21T07:08:49.134Z,54.28
2022-08-21T07:11:23.714Z,52.83
2022-08-21T07:13:57.890Z,51.81
2022-08-21T07:16:29.682Z,51.32
2022-08-21T07:19:01.940Z,50.83
2022-08-21T07:21:33.765Z,50.57
2022-08-21T07:24:05.737Z,50.59
2022-08-21T07:26:37.650Z,49.76
2022-08-21T07:29:09.483Z,49.76
2022-08-21T07:31:41.522Z,49.18
2022-08-21T07:34:13.403Z,48.73
2022-08-21T07:36:45.562Z,48.57
2022-08-21T07:39:18.170Z,47.63
2022-08-21T07:41:49.945Z,47.43
2022-08-21T07:44:21.973Z,47.26
2022-08-21T07:46:53.716Z,47.45
2022-08-21T07:49:25.883Z,47.26
2022-08-21T07:51:59.166Z,46.72
2022-08-21T07:54:33.813Z,47.31
2022-08-21T07:57:04.998Z,47.27
2022-08-21T07:59:37.092Z,46.92
2022-08-21T08:02:08.980Z,46.90
2022-08-21T08:04:50.943Z,46.87
2022-08-21T08:07:15.743Z,47.07
2022-08-21T08:09:48.591Z,47.14
2022-08-21T08:12:21.312Z,47.07
2022-08-21T08:14:54.052Z,47.57
2022-08-21T08:17:26.569Z,47.17
2022-08-21T08:19:58.686Z,47.11
2022-08-21T08:22:30.430Z,46.64
2022-08-21T08:25:05.207Z,46.67
2022-08-21T08:27:36.924Z,46.59
2022-08-21T08:30:12.050Z,46.82
2022-08-21T08:32:44.473Z,46.64
2022-08-21T08:35:16.366Z,46.64
2022-08-21T08:37:52.701Z,46.54
2022-08-21T08:40:34.443Z,47.00
2022-08-21T08:43:06.731Z,46.77
2022-08-21T08:45:39.955Z,46.37
2022-08-21T08:48:15.448Z,46.36
2022-08-21T08:50:53.567Z,45.91
2022-08-21T08:53:28.435Z,45.85
2022-08-21T08:56:00.164Z,46.01
2022-08-21T08:58:41.276Z,45.53
2022-08-21T09:01:18.837Z,45.35
2022-08-21T09:03:50.664Z,45.51
2022-08-21T09:06:49.707Z,45.32
2022-08-21T09:09:42.996Z,45.21
2022-08-21T09:12:20.941Z,45.57
2022-08-21T09:15:12.304Z,45.85
2022-08-21T09:17:52.574Z,45.67
2022-08-21T09:21:05.519Z,46.01
2022-08-21T09:23:58.785Z,46.41
2022-08-21T09:26:51.974Z,46.35
2022-08-21T09:29:25.763Z,46.17
2022-08-21T09:31:57.591Z,46.34
2022-08-21T09:34:32.501Z,46.34
2022-08-21T09:37:05.191Z,46.58
2022-08-21T09:39:46.899Z,46.73
2022-08-21T09:42:18.603Z,46.74
2022-08-21T09:44:50.664Z,46.03
2022-08-21T09:47:26.575Z,45.95
2022-08-21T09:49:56.159Z,45.82
2022-08-21T09:52:28.082Z,46.24
2022-08-21T09:54:59.979Z,46.30
2022-08-21T09:57:46.623Z,45.98
2022-08-21T10:00:32.188Z,45.58
2022-08-21T10:03:12.628Z,45.56
2022-08-21T10:05:57.465Z,45.60
2022-08-21T10:08:30.396Z,45.88
2022-08-21T10:11:11.099Z,45.78
2022-08-21T10:13:50.229Z,45.92
2022-08-21T10:16:43.160Z,45.87
2022-08-21T10:19:33.129Z,45.93
2022-08-21T10:22:19.925Z,45.69
2022-08-21T10:25:01.058Z,45.54
2022-08-21T10:27:42.650Z,45.49
2022-08-21T10:30:16.569Z,45.57
2022-08-21T10:33:03.401Z,45.02
2022-08-21T10:35:38.404Z,44.90
2022-08-21T10:38:46.273Z,45.05
2022-08-21T10:41:26.582Z,45.01
2022-08-21T10:44:13.940Z,45.37
2022-08-21T10:47:11.784Z,45.52
2022-08-21T10:50:02.065Z,45.28
2022-08-21T10:52:49.684Z,44.47
2022-08-21T10:55:23.763Z,44.43
2022-08-21T10:58:06.610Z,44.74
2022-08-21T11:00:48.062Z,44.92
2022-08-21T11:03:28.048Z,44.45
2022-08-21T11:06:27.148Z,44.11
2022-08-21T11:09:02.161Z,43.98
2022-08-21T11:11:53.670Z,44.22
2022-08-21T11:14:29.622Z,44.25
2022-08-21T11:17:19.143Z,43.94
2022-08-21T11:20:13.787Z,43.78
2022-08-21T11:22:59.978Z,43.80
2022-08-21T11:25:37.056Z,43.85
2022-08-21T11:28:20.657Z,44.09
2022-08-21T11:31:15.045Z,43.85
2022-08-21T11:34:08.116Z,44.09
2022-08-21T11:37:08.566Z,44.21
2022-08-21T11:40:08.237Z,44.16
2022-08-21T11:42:46.670Z,44.23
2022-08-21T11:45:39.439Z,44.31
2022-08-21T11:48:35.059Z,44.67
2022-08-21T11:51:09.564Z,44.88
2022-08-21T11:53:53.866Z,45.24
2022-08-21T11:56:29.382Z,45.81
2022-08-21T11:59:04.881Z,47.26
2022-08-21T12:01:43.822Z,48.18
2022-08-21T12:04:30.932Z,49.26
2022-08-21T12:07:17.607Z,49.74
2022-08-21T12:09:58.372Z,49.88
2022-08-21T12:12:38.153Z,50.43
2022-08-21T12:15:28.239Z,50.35
2022-08-21T12:18:03.273Z,50.35
2022-08-21T12:20:38.393Z,50.11
2022-08-21T12:23:17.125Z,49.85
2022-08-21T12:26:26.840Z,49.74
2022-08-21T12:29:17.340Z,49.88
2022-08-21T12:31:57.603Z,50.08
2022-08-21T12:34:38.377Z,49.83
2022-08-21T12:37:18.851Z,47.94
2022-08-21T12:39:53.585Z,46.79
2022-08-21T12:42:27.811Z,45.26
2022-08-21T12:45:03.282Z,45.31
2022-08-21T12:47:55.166Z,44.29
2022-08-21T12:50:57.733Z,43.83
2022-08-21T12:53:49.871Z,43.33
2022-08-21T12:56:25.167Z,43.21
2022-08-21T12:59:00.579Z,43.00
2022-08-21T13:01:41.483Z,43.09
2022-08-21T13:04:14.249Z,43.08
2022-08-21T13:06:52.439Z,43.00
2022-08-21T13:09:27.453Z,42.76
2022-08-21T13:11:59.781Z,42.55
2022-08-21T13:14:45.304Z,42.50
2022-08-21T13:17:20.336Z,42.50
2022-08-21T13:20:02.932Z,42.74
2022-08-21T13:22:36.762Z,42.64
2022-08-21T13:25:14.625Z,42.62
2022-08-21T13:27:49.044Z,42.62
2022-08-21T13:30:23.526Z,42.30
2022-08-21T13:32:58.614Z,42.40
2022-08-21T13:35:38.210Z,41.85
2022-08-21T13:38:10.069Z,41.71
2022-08-21T13:40:54.158Z,41.77
2022-08-21T13:43:29.872Z,41.80
2022-08-21T13:46:07.296Z,41.42
2022-08-21T13:48:39.724Z,41.82
2022-08-21T13:51:11.861Z,41.43
2022-08-21T13:53:47.100Z,41.05
2022-08-21T13:56:29.988Z,40.52
2022-08-21T13:59:03.253Z,40.29
2022-08-21T14:01:43.742Z,39.41
2022-08-21T14:04:18.685Z,39.28
2022-08-21T14:06:50.601Z,38.56
2022-08-21T14:09:28.293Z,38.55
2022-08-21T14:12:02.272Z,37.84
2022-08-21T14:14:36.521Z,38.08
2022-08-21T14:17:24.312Z,37.52
2022-08-21T14:19:46.667Z,37.34
2022-08-21T14:22:36.768Z,37.04
2022-08-21T14:25:11.769Z,36.81
2022-08-21T14:27:46.659Z,36.71
2022-08-21T14:30:24.049Z,36.75
2022-08-21T14:32:56.413Z,36.65
2022-08-21T14:35:28.734Z,36.57
2022-08-21T14:38:01.719Z,35.47
2022-08-21T14:40:35.716Z,35.72
2022-08-21T14:43:07.510Z,35.77
2022-08-21T14:45:41.102Z,35.72
2022-08-21T14:48:12.812Z,35.73
2022-08-21T14:50:44.924Z,35.71
2022-08-21T14:53:17.325Z,35.87
2022-08-21T14:56:08.018Z,36.21
2022-08-21T14:58:49.598Z,36.37
2022-08-21T15:01:23.270Z,36.47
2022-08-21T15:03:54.969Z,36.51
2022-08-21T15:06:26.854Z,36.72
2022-08-21T15:08:58.628Z,36.59
2022-08-21T15:11:42.227Z,36.41
2022-08-21T15:14:05.406Z,36.48
2022-08-21T15:16:37.513Z,36.47
2022-08-21T15:19:09.366Z,36.48
2022-08-21T15:21:41.178Z,36.64
2022-08-21T15:24:12.853Z,36.54
2022-08-21T15:26:44.967Z,36.64
2022-08-21T15:29:20.693Z,36.52
2022-08-21T15:31:59.075Z,36.25
2022-08-21T15:34:32.190Z,36.38
2022-08-21T15:37:05.624Z,36.45
2022-08-21T15:39:39.649Z,36.49
2022-08-21T15:42:12.060Z,36.53
2022-08-21T15:44:45.495Z,36.57
2022-08-21T15:47:22.475Z,36.72
2022-08-21T15:49:54.330Z,36.91
2022-08-21T15:52:26.126Z,37.01
2022-08-21T15:54:57.949Z,37.13
2022-08-21T15:57:29.923Z,37.36
2022-08-21T16:00:09.450Z,37.59
2022-08-21T16:02:46.524Z,37.79
2022-08-21T16:05:19.444Z,38.06
2022-08-21T16:07:52.347Z,38.29
2022-08-21T16:10:29.851Z,38.54
2022-08-21T16:13:03.023Z,38.84
2022-08-21T16:15:34.833Z,38.99
2022-08-21T16:18:06.742Z,39.05
2022-08-21T16:20:38.385Z,39.13
2022-08-21T16:23:10.511Z,39.24
2022-08-21T16:25:42.752Z,39.25
2022-08-21T16:28:16.057Z,39.35
2022-08-21T16:30:49.680Z,39.30
2022-08-21T16:33:33.443Z,39.27
2022-08-21T16:36:07.165Z,39.24
2022-08-21T16:38:39.704Z,39.16
2022-08-21T16:41:13.852Z,39.11
2022-08-21T16:43:45.977Z,38.82
2022-08-21T16:46:18.987Z,38.78
2022-08-21T16:48:50.940Z,38.73
2022-08-21T16:51:22.817Z,38.28
2022-08-21T16:53:54.848Z,38.07
2022-08-21T16:56:27.014Z,38.10
2022-08-21T16:58:59.606Z,37.84
2022-08-21T17:01:33.105Z,37.92
2022-08-21T17:04:05.225Z,37.93
2022-08-21T17:06:37.049Z,37.79
2022-08-21T17:09:08.838Z,37.78
2022-08-21T17:11:46.385Z,37.81
2022-08-21T17:14:22.880Z,37.65
2022-08-21T17:16:56.234Z,37.56
2022-08-21T17:19:28.003Z,37.50
2022-08-21T17:21:59.745Z,37.34
2022-08-21T17:24:31.772Z,37.28
2022-08-21T17:27:03.834Z,37.41
2022-08-21T17:29:39.359Z,37.22
2022-08-21T17:32:12.616Z,37.22
2022-08-21T17:34:45.153Z,37.26
2022-08-21T17:37:17.016Z,37.08
2022-08-21T17:39:48.761Z,37.01
2022-08-21T17:42:22.151Z,36.92
2022-08-21T17:44:56.162Z,36.84
2022-08-21T17:47:27.939Z,36.86
2022-08-21T17:49:59.801Z,36.80
2022-08-21T17:52:33.597Z,36.83
2022-08-21T17:55:06.575Z,36.81
2022-08-21T17:57:39.654Z,36.78
2022-08-21T18:00:13.973Z,36.76
2022-08-21T18:02:47.706Z,36.78
2022-08-21T18:05:20.445Z,36.87
2022-08-21T18:07:52.562Z,36.91
2022-08-21T18:10:26.070Z,37.04
2022-08-21T18:12:58.704Z,37.12
2022-08-21T18:15:30.620Z,37.20
2022-08-21T18:18:02.554Z,37.19
2022-08-21T18:20:34.509Z,37.28
2022-08-21T18:23:06.496Z,37.27
2022-08-21T18:25:38.274Z,37.24
2022-08-21T18:28:10.296Z,37.33
2022-08-21T18:30:43.000Z,37.29
2022-08-21T18:33:15.143Z,37.31
2022-08-21T18:35:47.225Z,37.31
2022-08-21T18:38:20.783Z,37.37
2022-08-21T18:40:56.123Z,37.42
2022-08-21T18:43:27.795Z,37.29
2022-08-21T18:45:59.741Z,37.40
2022-08-21T18:48:32.416Z,37.47
2022-08-21T18:51:04.518Z,37.56
2022-08-21T18:53:37.963Z,37.52
2022-08-21T18:56:15.582Z,37.39
2022-08-21T18:58:44.497Z,37.32
2022-08-21T19:03:50.731Z,37.55
2022-08-21T19:06:23.322Z,37.69
2022-08-21T19:08:56.284Z,37.84
2022-08-21T19:11:28.873Z,37.92
2022-08-21T19:14:02.110Z,38.12
2022-08-21T19:16:36.863Z,38.20
2022-08-21T19:19:09.986Z,38.28
2022-08-21T19:21:41.795Z,38.51
2022-08-21T19:24:17.811Z,38.45
2022-08-21T19:26:47.103Z,38.49
2022-08-21T19:29:19.366Z,38.41
2022-08-21T19:31:53.176Z,38.40
2022-08-21T19:34:27.603Z,38.50
2022-08-21T19:37:01.122Z,38.46
2022-08-21T19:39:34.644Z,38.44
2022-08-21T19:42:07.184Z,38.58
2022-08-21T19:44:40.739Z,39.09
2022-08-21T19:47:19.392Z,39.37
2022-08-21T19:49:53.952Z,38.88
2022-08-21T19:52:27.921Z,39.05
2022-08-21T19:55:01.405Z,39.23
2022-08-21T19:57:33.288Z,38.61
2022-08-21T20:00:07.482Z,38.29
2022-08-21T20:02:48.090Z,37.94
2022-08-21T20:05:16.091Z,36.97
2022-08-21T20:07:49.927Z,36.58
2022-08-21T20:10:22.548Z,36.14
2022-08-21T20:12:54.835Z,35.66
2022-08-21T20:15:26.652Z,35.11
2022-08-21T20:17:59.489Z,34.80
2022-08-21T20:20:31.633Z,34.58
2022-08-21T20:23:10.695Z,34.20
2022-08-21T20:25:37.062Z,34.04
2022-08-21T20:28:08.827Z,33.92
2022-08-21T20:30:46.791Z,33.73
2022-08-21T20:33:15.492Z,33.54
2022-08-21T20:35:48.890Z,33.53
2022-08-21T20:38:21.561Z,33.51
2022-08-21T20:40:53.778Z,33.44
2022-08-21T20:43:26.335Z,33.55
2022-08-21T20:46:00.858Z,33.39
2022-08-21T20:48:49.134Z,33.40
2022-08-21T20:51:17.829Z,33.06
2022-08-21T20:54:08.035Z,33.12
2022-08-21T20:56:47.441Z,32.85
2022-08-21T20:59:32.676Z,32.68
2022-08-21T21:02:41.056Z,32.63
2022-08-21T21:05:34.563Z,32.50
2022-08-21T21:08:11.791Z,32.47
2022-08-21T21:10:51.567Z,32.27
2022-08-21T21:13:29.382Z,32.19
2022-08-21T21:16:07.676Z,32.11
2022-08-21T21:18:49.972Z,32.28
2022-08-21T21:21:38.810Z,32.28
2022-08-21T21:24:19.573Z,32.22
2022-08-21T21:26:53.732Z,32.34
2022-08-21T21:29:34.957Z,32.37
2022-08-21T21:32:08.833Z,32.17
2022-08-21T21:34:44.176Z,31.85
2022-08-21T21:37:25.325Z,31.83
2022-08-21T21:40:35.549Z,31.84
2022-08-21T21:43:25.213Z,31.88
2022-08-21T21:46:06.003Z,31.99
2022-08-21T21:48:44.388Z,31.89
2022-08-21T21:51:22.498Z,32.04
2022-08-21T21:54:06.221Z,32.17
2022-08-21T21:56:56.894Z,32.20
2022-08-21T21:59:43.919Z,32.24
2022-08-21T22:02:27.864Z,32.37
2022-08-21T22:05:11.147Z,32.48
2022-08-21T22:07:46.039Z,32.55
2022-08-21T22:10:43.125Z,32.46
2022-08-21T22:13:26.638Z,32.54
2022-08-21T22:15:57.611Z,32.62
2022-08-21T22:18:32.156Z,32.72
2022-08-21T22:21:06.027Z,32.87
2022-08-21T22:23:40.876Z,33.04
2022-08-21T22:26:17.990Z,33.26
2022-08-21T22:28:51.305Z,33.54
2022-08-21T22:31:25.893Z,33.71
2022-08-21T22:34:17.859Z,33.92
2022-08-21T22:36:51.718Z,34.13
2022-08-21T22:39:33.117Z,34.20
2022-08-21T22:42:17.453Z,34.23
2022-08-21T22:47:42.358Z,34.35
2022-08-21T22:53:08.972Z,34.31
2022-08-21T22:55:43.650Z,34.29
2022-08-21T22:58:21.944Z,34.28
2022-08-21T23:00:59.726Z,34.61
2022-08-21T23:03:45.246Z,34.83
2022-08-21T23:06:34.005Z,35.05
2022-08-21T23:09:05.978Z,35.23
2022-08-21T23:11:42.714Z,35.43
2022-08-21T23:14:16.628Z,35.57
2022-08-21T23:17:00.686Z,35.78
2022-08-21T23:19:47.260Z,35.97
2022-08-21T23:22:39.486Z,36.18
2022-08-21T23:25:24.750Z,36.47
2022-08-21T23:28:05.713Z,36.62
2022-08-21T23:30:53.502Z,36.81
2022-08-21T23:33:38.652Z,36.96
2022-08-21T23:36:40.485Z,36.99
2022-08-21T23:39:24.117Z,37.15
2022-08-21T23:42:20.801Z,37.27
2022-08-21T23:45:14.426Z,37.27
2022-08-21T23:48:05.889Z,37.32
2022-08-21T23:50:52.822Z,37.45
2022-08-21T23:53:59.920Z,37.52
2022-08-21T23:56:44.900Z,37.56
2022-08-21T23:59:37.926Z,37.61
